Time;durP1;ratioP1;P1;durP2;ratioP2;P2;SDS_P1;SDS_P2;PMS_P1;PMS_P2;Temp;Humidity;BMP_temperature;BMP_pressure;BME280_temperature;BME280_humidity;BME280_pressure;Samples;Min_cycle;Max_cycle;Signal;HPM_P1;HPM_P2
2021/09/06 00:00:59;;;;;;;10.40;7.50;;;17.80;99.90;;;;;;5034377;28;20244;-57
2021/09/06 00:03:24;;;;;;;11.43;7.17;;;17.80;99.90;;;;;;5034600;28;20160;-58
2021/09/06 00:05:50;;;;;;;7.80;7.10;;;17.80;99.90;;;;;;5034684;28;20507;-58
2021/09/06 00:08:15;;;;;;;7.40;6.70;;;17.80;99.90;;;;;;5035531;28;20168;-57
2021/09/06 00:10:43;;;;;;;8.37;7.57;;;17.70;99.90;;;;;;5034621;28;20222;-58
2021/09/06 00:13:11;;;;;;;8.67;7.00;;;17.70;99.90;;;;;;5034689;28;20167;-58
2021/09/06 00:15:38;;;;;;;6.93;6.33;;;17.60;99.90;;;;;;5034289;28;21009;-57
2021/09/06 00:18:04;;;;;;;7.77;6.77;;;17.70;99.90;;;;;;5034513;28;20414;-58
2021/09/06 00:20:32;;;;;;;8.40;7.50;;;17.70;99.90;;;;;;5034159;28;20961;-58
2021/09/06 00:22:58;;;;;;;7.23;6.53;;;17.70;99.90;;;;;;5027641;28;20512;-58
2021/09/06 00:25:24;;;;;;;9.00;7.23;;;17.70;99.90;;;;;;5029216;28;20414;-58
2021/09/06 00:27:50;;;;;;;7.43;6.63;;;17.60;99.90;;;;;;5034679;28;20170;-57
2021/09/06 00:30:16;;;;;;;7.80;7.10;;;17.50;99.90;;;;;;5034241;28;20187;-58
2021/09/06 00:32:41;;;;;;;8.10;7.20;;;17.50;99.90;;;;;;5034764;28;20182;-57
2021/09/06 00:35:07;;;;;;;8.67;7.97;;;17.50;99.90;;;;;;5034551;28;20406;-58
2021/09/06 00:37:33;;;;;;;15.53;7.90;;;17.40;99.90;;;;;;5034662;28;20185;-58
2021/09/06 00:39:58;;;;;;;8.10;6.73;;;17.40;99.90;;;;;;5034391;28;20199;-57
2021/09/06 00:42:24;;;;;;;8.93;7.43;;;17.30;99.90;;;;;;5034003;28;20195;-58
2021/09/06 00:44:49;;;;;;;10.47;6.67;;;17.30;99.90;;;;;;5034086;28;20221;-57
2021/09/06 00:47:16;;;;;;;8.37;7.57;;;17.20;99.90;;;;;;5034361;28;20170;-57
2021/09/06 00:49:41;;;;;;;6.87;6.30;;;17.30;99.90;;;;;;5033973;28;20179;-56
2021/09/06 00:52:07;;;;;;;8.57;7.77;;;17.30;99.90;;;;;;5034608;28;20916;-58
2021/09/06 00:54:33;;;;;;;7.73;7.03;;;17.20;99.90;;;;;;5034456;28;20232;-56
2021/09/06 00:56:59;;;;;;;8.13;7.07;;;17.20;99.90;;;;;;5034283;28;20179;-54
2021/09/06 00:59:24;;;;;;;8.00;7.30;;;17.20;99.90;;;;;;5034268;28;20183;-58
2021/09/06 01:01:50;;;;;;;8.50;7.40;;;17.10;99.90;;;;;;5034236;28;20206;-58
2021/09/06 01:04:16;;;;;;;8.23;7.43;;;17.00;99.90;;;;;;5034129;28;20641;-58
2021/09/06 01:06:41;;;;;;;8.23;7.47;;;17.10;99.90;;;;;;5034188;28;20544;-57
2021/09/06 01:09:07;;;;;;;7.90;7.10;;;17.10;99.90;;;;;;5033969;28;20178;-57
2021/09/06 01:11:32;;;;;;;8.20;7.50;;;17.10;99.90;;;;;;5033621;28;20276;-54
2021/09/06 01:13:58;;;;;;;7.67;6.97;;;17.10;99.90;;;;;;5033586;28;20170;-58
2021/09/06 01:16:24;;;;;;;9.33;7.60;;;17.20;99.90;;;;;;5033241;28;20707;-57
2021/09/06 01:18:50;;;;;;;8.60;7.80;;;17.10;99.90;;;;;;5033455;28;20220;-54
2021/09/06 01:21:16;;;;;;;8.70;7.90;;;17.00;99.90;;;;;;5033441;28;20234;-58
2021/09/06 01:23:42;;;;;;;7.43;6.73;;;17.00;99.90;;;;;;5033596;28;20961;-58
2021/09/06 01:26:08;;;;;;;8.60;7.50;;;16.90;99.90;;;;;;5034397;28;20692;-57
2021/09/06 01:28:34;;;;;;;7.50;6.80;;;16.80;99.90;;;;;;5025097;28;20403;-58
2021/09/06 01:31:00;;;;;;;9.03;7.70;;;16.80;99.90;;;;;;5031693;28;20434;-54
2021/09/06 01:33:26;;;;;;;8.40;7.60;;;16.80;99.90;;;;;;5033394;28;20793;-57
2021/09/06 01:35:52;;;;;;;8.70;7.93;;;16.80;99.90;;;;;;5033306;28;20462;-58
2021/09/06 01:38:17;;;;;;;8.87;7.97;;;16.80;99.90;;;;;;5033316;28;20166;-56
2021/09/06 01:40:43;;;;;;;8.47;7.63;;;16.80;99.90;;;;;;5033435;28;20257;-58
2021/09/06 01:43:08;;;;;;;8.37;7.57;;;16.80;99.90;;;;;;5033505;28;20226;-57
2021/09/06 01:45:34;;;;;;;7.97;7.17;;;16.70;99.90;;;;;;5033247;28;20165;-58
2021/09/06 01:48:00;;;;;;;9.60;7.77;;;16.60;99.90;;;;;;5033289;28;20164;-58
2021/09/06 01:50:25;;;;;;;8.50;7.70;;;16.60;99.90;;;;;;5033313;28;20190;-57
2021/09/06 01:52:51;;;;;;;9.10;8.23;;;16.40;99.90;;;;;;5033338;28;20856;-57
2021/09/06 01:55:17;;;;;;;7.80;6.87;;;16.40;99.90;;;;;;5035145;28;20185;-57
2021/09/06 01:57:42;;;;;;;10.07;6.97;;;16.50;99.90;;;;;;5037356;28;20194;-57
2021/09/06 02:00:08;;;;;;;8.03;7.33;;;16.60;99.90;;;;;;5037040;28;20280;-58
2021/09/06 02:02:34;;;;;;;8.20;7.37;;;16.50;99.90;;;;;;5037685;28;20554;-57
2021/09/06 02:04:59;;;;;;;7.33;6.63;;;16.60;99.90;;;;;;5037206;28;20443;-58
2021/09/06 02:07:25;;;;;;;8.13;7.20;;;16.60;99.90;;;;;;5037462;28;20514;-58
2021/09/06 02:09:51;;;;;;;8.43;7.63;;;16.70;99.90;;;;;;5037092;28;20547;-58
2021/09/06 02:12:16;;;;;;;8.33;7.53;;;16.60;99.90;;;;;;5037664;28;20176;-58
2021/09/06 02:14:42;;;;;;;9.23;8.30;;;16.70;99.90;;;;;;5036858;28;20177;-58
2021/09/06 02:17:07;;;;;;;9.10;8.20;;;16.70;99.90;;;;;;5036975;28;20177;-57
2021/09/06 02:19:33;;;;;;;8.70;7.90;;;16.70;99.90;;;;;;5036992;28;20207;-56
2021/09/06 02:21:59;;;;;;;8.10;7.30;;;16.70;99.90;;;;;;5043552;23;20228;-61
2021/09/06 02:24:26;;;;;;;9.93;8.20;;;16.60;99.90;;;;;;5033643;28;20190;-61
2021/09/06 02:26:52;;;;;;;8.13;7.40;;;16.50;99.90;;;;;;5036701;28;20166;-61
2021/09/06 02:29:18;;;;;;;9.83;8.80;;;16.40;99.90;;;;;;5036635;28;20409;-61
2021/09/06 02:31:44;;;;;;;9.03;8.23;;;16.30;99.90;;;;;;5036286;28;20808;-61
2021/09/06 02:34:10;;;;;;;8.53;7.83;;;16.20;99.90;;;;;;5036515;28;20492;-61
2021/09/06 02:36:36;;;;;;;8.43;7.70;;;16.10;99.90;;;;;;5036466;28;20404;-61
2021/09/06 02:39:03;;;;;;;9.20;8.40;;;16.00;99.90;;;;;;5036249;28;20406;-61
2021/09/06 02:41:28;;;;;;;9.40;8.50;;;16.00;99.90;;;;;;5036385;28;20461;-61
2021/09/06 02:43:54;;;;;;;8.60;7.70;;;16.00;99.90;;;;;;5036598;28;21047;-61
2021/09/06 02:46:19;;;;;;;9.97;8.97;;;15.80;99.90;;;;;;5036279;28;20196;-61
2021/09/06 02:48:45;;;;;;;7.63;7.00;;;15.90;99.90;;;;;;5036231;28;20169;-61
2021/09/06 02:51:11;;;;;;;9.53;8.20;;;16.00;99.90;;;;;;5036132;28;20183;-61
2021/09/06 02:53:36;;;;;;;8.80;7.57;;;16.20;99.90;;;;;;5036131;28;20198;-62
2021/09/06 02:56:02;;;;;;;8.13;7.33;;;16.20;99.90;;;;;;5035891;28;20652;-61
2021/09/06 02:58:28;;;;;;;9.37;8.57;;;16.20;99.90;;;;;;5036109;28;20636;-61
2021/09/06 03:00:53;;;;;;;8.87;8.07;;;16.20;99.90;;;;;;5035681;28;20478;-61
2021/09/06 03:03:19;;;;;;;9.80;8.43;;;16.10;99.90;;;;;;5035954;28;20222;-61
2021/09/06 03:05:45;;;;;;;12.60;8.40;;;16.00;99.90;;;;;;5035559;28;20198;-60
2021/09/06 03:08:10;;;;;;;9.57;8.77;;;16.00;99.90;;;;;;5036251;28;20166;-61
2021/09/06 03:10:36;;;;;;;8.77;7.17;;;16.00;99.90;;;;;;5035681;28;20186;-61
2021/09/06 03:13:01;;;;;;;10.97;8.10;;;16.00;99.90;;;;;;5035822;28;20173;-61
2021/09/06 03:15:27;;;;;;;9.40;8.60;;;15.90;99.90;;;;;;5035556;28;20181;-61
2021/09/06 03:17:53;;;;;;;10.03;9.03;;;15.90;99.90;;;;;;5035749;28;20172;-61
2021/09/06 03:20:18;;;;;;;9.63;8.63;;;15.80;99.90;;;;;;5035824;28;20198;-61
2021/09/06 03:22:44;;;;;;;8.83;8.00;;;15.80;99.90;;;;;;5035544;28;20199;-61
2021/09/06 03:25:10;;;;;;;8.23;7.43;;;15.80;99.90;;;;;;5033749;28;20172;-61
2021/09/06 03:27:35;;;;;;;10.17;8.50;;;15.80;99.90;;;;;;5017174;28;20641;-61
2021/09/06 03:30:01;;;;;;;9.07;8.07;;;15.80;99.90;;;;;;5021674;28;20974;-61
2021/09/06 03:32:27;;;;;;;9.40;8.50;;;15.80;99.90;;;;;;5035303;28;20195;-61
2021/09/06 03:34:52;;;;;;;9.10;8.20;;;15.70;99.90;;;;;;5035170;28;20232;-61
2021/09/06 03:37:18;;;;;;;10.07;8.07;;;15.80;99.90;;;;;;5035689;28;20175;-61
2021/09/06 03:39:43;;;;;;;9.50;8.70;;;15.60;99.90;;;;;;5034149;28;20271;-61
2021/09/06 03:42:10;;;;;;;10.37;7.90;;;15.50;99.90;;;;;;5035307;28;20204;-61
2021/09/06 03:44:35;;;;;;;8.27;7.47;;;15.50;99.90;;;;;;5035052;28;20178;-61
2021/09/06 03:47:01;;;;;;;9.57;7.70;;;15.60;99.90;;;;;;5035514;28;20762;-61
2021/09/06 03:49:27;;;;;;;8.80;8.00;;;15.60;99.90;;;;;;5035490;28;20166;-61
2021/09/06 03:51:52;;;;;;;9.47;8.30;;;15.70;99.90;;;;;;5035416;28;20595;-61
2021/09/06 03:54:18;;;;;;;11.17;8.60;;;15.60;99.90;;;;;;5035037;28;20180;-62
2021/09/06 03:56:43;;;;;;;9.27;8.47;;;15.60;99.90;;;;;;5034880;28;20636;-61
2021/09/06 03:59:09;;;;;;;10.30;8.27;;;15.60;99.90;;;;;;5034963;28;20201;-61
2021/09/06 04:01:34;;;;;;;9.03;8.13;;;15.60;99.90;;;;;;5034428;28;20194;-61
2021/09/06 04:04:00;;;;;;;9.50;8.60;;;15.60;99.90;;;;;;5034882;28;20165;-61
2021/09/06 04:06:26;;;;;;;8.87;8.00;;;15.50;99.90;;;;;;5034805;28;20220;-62
2021/09/06 04:08:51;;;;;;;8.70;7.80;;;15.50;99.90;;;;;;5034547;28;20169;-59
2021/09/06 04:11:17;;;;;;;10.13;9.13;;;15.40;99.90;;;;;;5034699;28;20239;-61
2021/09/06 04:13:44;;;;;;;9.30;8.50;;;15.40;99.90;;;;;;5034918;28;20520;-61
2021/09/06 04:16:09;;;;;;;8.63;7.83;;;15.40;99.90;;;;;;5034418;28;20162;-61
2021/09/06 04:18:36;;;;;;;8.97;8.10;;;;;;;;;;5034111;28;20878;-61
2021/09/06 04:21:02;;;;;;;9.87;8.93;;;;;;;;;;5034411;28;20201;-61
2021/09/06 04:23:28;;;;;;;9.27;8.47;;;;;;;;;;5034518;28;20416;-61
2021/09/06 04:25:54;;;;;;;8.63;7.83;;;;;;;;;;5034643;28;20816;-61
2021/09/06 04:28:20;;;;;;;11.87;9.20;;;;;;;;;;5034939;28;20423;-61
2021/09/06 04:30:46;;;;;;;8.67;7.87;;;15.30;99.90;;;;;;5034104;28;20433;-61
2021/09/06 04:33:11;;;;;;;10.73;8.80;;;15.30;99.90;;;;;;5034541;28;20417;-61
2021/09/06 04:35:37;;;;;;;9.00;8.20;;;15.40;99.90;;;;;;5034182;28;20169;-60
2021/09/06 04:38:02;;;;;;;12.20;10.97;;;15.40;99.90;;;;;;5035000;28;20247;-61
2021/09/06 04:40:28;;;;;;;12.17;10.47;;;15.30;99.90;;;;;;5033828;28;20201;-61
2021/09/06 04:42:54;;;;;;;11.50;10.30;;;15.30;99.90;;;;;;5033986;28;20189;-61
2021/09/06 04:45:20;;;;;;;14.50;12.10;;;15.30;99.90;;;;;;5032636;28;20420;-60
2021/09/06 04:47:45;;;;;;;10.23;9.23;;;15.30;99.90;;;;;;5033999;28;20409;-60
2021/09/06 04:50:11;;;;;;;12.37;11.17;;;15.30;99.90;;;;;;5034466;28;20176;-62
2021/09/06 04:52:37;;;;;;;10.60;9.50;;;15.30;99.90;;;;;;5034149;28;20569;-61
2021/09/06 04:55:03;;;;;;;11.07;9.90;;;15.30;99.90;;;;;;5033730;28;20205;-61
2021/09/06 04:57:28;;;;;;;10.13;9.13;;;15.30;99.90;;;;;;5034156;28;20172;-61
2021/09/06 04:59:54;;;;;;;11.30;10.20;;;15.30;99.90;;;;;;5033407;28;20422;-61
2021/09/06 05:02:19;;;;;;;13.80;11.57;;;15.20;99.90;;;;;;5033841;28;20705;-59
2021/09/06 05:04:45;;;;;;;9.23;8.33;;;15.20;99.90;;;;;;5034235;28;20173;-61
2021/09/06 05:07:11;;;;;;;10.03;8.90;;;15.10;99.90;;;;;;5033888;28;20197;-60
2021/09/06 05:09:36;;;;;;;10.03;9.03;;;15.10;99.90;;;;;;5033463;28;20634;-59
2021/09/06 05:12:02;;;;;;;10.67;9.67;;;15.20;99.90;;;;;;5033426;28;20203;-59
2021/09/06 05:14:27;;;;;;;9.83;8.90;;;15.10;99.90;;;;;;5026786;28;20254;-61
2021/09/06 05:16:53;;;;;;;10.20;9.20;;;15.20;99.90;;;;;;5024676;28;20194;-59
2021/09/06 05:19:18;;;;;;;9.80;8.90;;;15.20;99.90;;;;;;5033197;28;20177;-60
2021/09/06 05:21:44;;;;;;;9.70;8.70;;;15.20;99.90;;;;;;5033079;28;20801;-59
2021/09/06 05:24:10;;;;;;;9.97;8.90;;;15.20;99.90;;;;;;5033300;28;20626;-58
2021/09/06 05:26:35;;;;;;;9.93;8.90;;;15.10;99.90;;;;;;5033554;28;20195;-59
2021/09/06 05:29:01;;;;;;;10.70;9.63;;;15.10;99.90;;;;;;5033479;28;20513;-60
2021/09/06 05:31:26;;;;;;;10.87;9.80;;;15.10;99.90;;;;;;5032938;28;20198;-60
2021/09/06 05:33:52;;;;;;;11.27;10.07;;;15.20;99.90;;;;;;5033546;28;20582;-60
2021/09/06 05:36:18;;;;;;;10.80;9.40;;;15.30;99.90;;;;;;5033369;28;20257;-61
2021/09/06 05:38:44;;;;;;;12.80;10.73;;;15.40;99.90;;;;;;5032875;28;20223;-61
2021/09/06 05:41:10;;;;;;;10.20;9.30;;;15.50;99.90;;;;;;5033114;28;20679;-61
2021/09/06 05:43:35;;;;;;;11.27;9.57;;;15.50;99.90;;;;;;5033093;28;20444;-61
2021/09/06 05:46:01;;;;;;;10.50;8.93;;;15.50;99.90;;;;;;5032746;28;20426;-62
2021/09/06 05:48:27;;;;;;;10.50;9.50;;;15.50;99.90;;;;;;5033074;28;20225;-61
2021/09/06 05:50:53;;;;;;;11.80;10.60;;;15.60;99.90;;;;;;5032876;28;20470;-61
2021/09/06 05:53:18;;;;;;;12.80;9.30;;;15.60;99.90;;;;;;5033388;28;20186;-61
2021/09/06 05:55:44;;;;;;;11.20;10.13;;;15.70;99.90;;;;;;5032569;28;20628;-58
2021/09/06 05:58:10;;;;;;;9.93;8.97;;;15.70;99.90;;;;;;5033193;28;20201;-60
2021/09/06 06:00:35;;;;;;;11.00;9.90;;;15.60;99.90;;;;;;5032518;28;20698;-60
2021/09/06 06:03:02;;;;;;;10.97;9.80;;;15.70;99.90;;;;;;5032722;28;20202;-59
2021/09/06 06:05:28;;;;;;;10.50;9.50;;;15.70;99.90;;;;;;5032756;28;20173;-60
2021/09/06 06:07:53;;;;;;;15.43;11.60;;;15.80;99.90;;;;;;5032846;28;20421;-59
2021/09/06 06:10:19;;;;;;;10.00;9.00;;;15.80;99.90;;;;;;5032339;28;20205;-60
2021/09/06 06:12:45;;;;;;;11.93;10.90;;;15.80;99.90;;;;;;5033033;28;20172;-60
2021/09/06 06:15:11;;;;;;;10.27;9.00;;;15.90;99.90;;;;;;5033307;28;20694;-60
2021/09/06 06:17:39;;;;;;;10.77;9.67;;;15.90;99.90;;;;;;5032767;28;20179;-60
2021/09/06 06:20:05;;;;;;;11.07;10.07;;;16.10;99.90;;;;;;5032948;28;20414;-61
2021/09/06 06:22:31;;;;;;;12.73;9.27;;;16.20;99.90;;;;;;5032401;28;20524;-60
2021/09/06 06:24:57;;;;;;;11.80;8.97;;;16.20;99.90;;;;;;5032475;28;20410;-60
2021/09/06 06:27:23;;;;;;;10.10;9.00;;;16.30;99.90;;;;;;5032466;28;20172;-58
2021/09/06 06:29:49;;;;;;;9.83;8.83;;;16.50;99.90;;;;;;5032501;28;20809;-60
2021/09/06 06:32:14;;;;;;;11.33;9.70;;;16.50;99.90;;;;;;5032572;28;20290;-60
2021/09/06 06:34:40;;;;;;;9.63;8.70;;;16.70;99.90;;;;;;5032461;28;20174;-59
2021/09/06 06:37:05;;;;;;;10.20;9.30;;;16.80;99.90;;;;;;5032398;28;20187;-60
2021/09/06 06:39:31;;;;;;;9.80;8.90;;;16.90;99.90;;;;;;5032424;28;20202;-60
2021/09/06 06:41:57;;;;;;;10.43;9.33;;;17.00;99.90;;;;;;5034928;28;20260;-60
2021/09/06 06:44:23;;;;;;;10.47;9.40;;;17.00;99.90;;;;;;5036251;28;20167;-59
2021/09/06 06:46:49;;;;;;;11.27;10.07;;;17.10;99.90;;;;;;5036043;28;20903;-59
2021/09/06 06:49:15;;;;;;;9.77;8.77;;;17.20;99.90;;;;;;5036489;28;20170;-60
2021/09/06 06:51:41;;;;;;;10.50;9.47;;;17.30;99.90;;;;;;5036388;28;20195;-60
2021/09/06 06:54:06;;;;;;;11.97;9.80;;;17.50;99.90;;;;;;5035776;28;20916;-59
2021/09/06 06:56:32;;;;;;;11.03;10.00;;;17.60;99.90;;;;;;5037112;28;20183;-59
2021/09/06 06:58:58;;;;;;;12.47;11.17;;;17.70;99.90;;;;;;5036012;28;20183;-61
2021/09/06 07:01:23;;;;;;;13.27;11.97;;;17.80;99.90;;;;;;5035586;28;20614;-59
2021/09/06 07:03:49;;;;;;;16.10;12.57;;;17.90;99.90;;;;;;5035621;28;20229;-60
2021/09/06 07:06:15;;;;;;;14.37;12.27;;;17.90;99.90;;;;;;5035562;28;20643;-60
2021/09/06 07:08:40;;;;;;;12.67;11.43;;;18.10;99.90;;;;;;5035676;28;20517;-59
2021/09/06 07:11:06;;;;;;;11.63;10.30;;;18.00;99.90;;;;;;5018528;28;20200;-60
2021/09/06 07:13:32;;;;;;;13.10;10.97;;;18.10;99.90;;;;;;5015971;28;20168;-60
2021/09/06 07:15:57;;;;;;;12.53;11.23;;;18.10;99.90;;;;;;5016201;28;20179;-60
2021/09/06 07:18:23;;;;;;;11.57;10.47;;;18.20;99.90;;;;;;5015860;28;20251;-60
2021/09/06 07:20:49;;;;;;;13.80;12.30;;;18.30;99.90;;;;;;5015661;28;20247;-60
2021/09/06 07:23:14;;;;;;;14.63;10.60;;;18.40;99.90;;;;;;5015939;28;20200;-59
2021/09/06 07:25:40;;;;;;;11.57;10.37;;;18.60;99.90;;;;;;5014923;28;20171;-60
2021/09/06 07:28:05;;;;;;;10.60;9.60;;;18.90;99.90;;;;;;5015770;28;20262;-60
2021/09/06 07:30:32;;;;;;;10.43;9.43;;;19.10;99.90;;;;;;5015555;28;20196;-61
2021/09/06 07:32:59;;;;;;;10.40;9.40;;;19.30;99.90;;;;;;5015883;28;20175;-60
2021/09/06 07:35:25;;;;;;;15.30;12.87;;;19.40;99.90;;;;;;5015815;28;20469;-60
2021/09/06 07:37:50;;;;;;;11.20;10.10;;;19.50;99.90;;;;;;5015562;28;20411;-61
2021/09/06 07:40:17;;;;;;;12.73;11.43;;;19.60;99.90;;;;;;5031146;28;20183;-61
2021/09/06 07:42:43;;;;;;;14.90;11.70;;;19.50;99.90;;;;;;5035105;28;20187;-61
2021/09/06 07:45:09;;;;;;;13.00;11.60;;;19.60;99.90;;;;;;5034953;28;20496;-59
2021/09/06 07:47:35;;;;;;;14.57;11.73;;;19.70;99.90;;;;;;5034908;28;20175;-60
2021/09/06 07:50:03;;;;;;;12.47;10.87;;;19.70;99.90;;;;;;5035586;28;20958;-59
2021/09/06 07:52:28;;;;;;;11.87;10.70;;;19.90;99.90;;;;;;5035183;28;20191;-58
2021/09/06 07:54:54;;;;;;;16.83;12.00;;;19.90;99.90;;;;;;5035134;28;20405;-59
2021/09/06 07:57:20;;;;;;;13.87;12.33;;;20.00;99.90;;;;;;5035112;28;20520;-60
2021/09/06 07:59:45;;;;;;;11.60;10.50;;;20.20;99.90;;;;;;5034967;28;20175;-60
2021/09/06 08:02:11;;;;;;;11.83;10.60;;;20.10;99.90;;;;;;5034437;28;20286;-60
2021/09/06 08:04:37;;;;;;;12.97;10.67;;;20.30;99.90;;;;;;5034750;28;20163;-60
2021/09/06 08:07:03;;;;;;;13.43;10.60;;;20.30;99.90;;;;;;5033449;28;20288;-61
2021/09/06 08:09:28;;;;;;;12.77;11.30;;;20.30;99.90;;;;;;5034637;28;20250;-60
2021/09/06 08:11:56;;;;;;;12.70;10.60;;;20.40;99.90;;;;;;5035057;28;20482;-60
2021/09/06 08:14:23;;;;;;;11.23;10.10;;;20.30;99.90;;;;;;5034716;28;20494;-60
2021/09/06 08:16:49;;;;;;;12.23;10.93;;;20.40;99.90;;;;;;5034578;28;20419;-60
2021/09/06 08:19:15;;;;;;;12.20;10.73;;;20.50;99.90;;;;;;5034400;28;20398;-60
2021/09/06 08:21:41;;;;;;;10.23;9.13;;;20.40;99.90;;;;;;5034134;28;20207;-59
2021/09/06 08:24:06;;;;;;;12.80;10.40;;;20.40;99.90;;;;;;5046736;22;20312;-57
2021/09/06 08:26:32;;;;;;;10.63;9.53;;;20.50;99.90;;;;;;5014736;28;20847;-59
2021/09/06 08:28:58;;;;;;;11.67;9.33;;;20.60;99.90;;;;;;5014522;28;20255;-59
2021/09/06 08:31:25;;;;;;;12.77;9.77;;;20.70;99.90;;;;;;5014256;28;20172;-59
2021/09/06 08:33:51;;;;;;;14.63;9.40;;;20.90;99.90;;;;;;5014591;28;20623;-59
2021/09/06 08:36:16;;;;;;;10.80;9.80;;;21.10;99.90;;;;;;5014647;28;20446;-59
2021/09/06 08:38:42;;;;;;;10.93;9.80;;;21.10;99.90;;;;;;5014782;28;20179;-58
2021/09/06 08:41:08;;;;;;;11.93;9.23;;;21.30;99.90;;;;;;4996653;28;20663;-58
2021/09/06 08:43:34;;;;;;;15.50;9.70;;;21.30;99.90;;;;;;5014347;28;20214;-59
2021/09/06 08:46:00;;;;;;;11.57;9.37;;;21.40;99.90;;;;;;5013884;28;20399;-59
2021/09/06 08:48:26;;;;;;;10.40;8.83;;;21.40;99.90;;;;;;5014410;28;20188;-57
2021/09/06 08:50:52;;;;;;;15.97;9.50;;;21.50;99.90;;;;;;5014079;28;20884;-59
2021/09/06 08:53:18;;;;;;;9.47;8.57;;;21.50;99.90;;;;;;5014342;28;20791;-57
2021/09/06 08:55:44;;;;;;;10.57;8.43;;;21.60;99.90;;;;;;5014002;28;20966;-58
2021/09/06 08:58:10;;;;;;;9.47;8.57;;;21.80;99.90;;;;;;5013934;28;20502;-59
2021/09/06 09:00:36;;;;;;;9.63;8.53;;;22.00;99.90;;;;;;5013761;28;20187;-59
2021/09/06 09:03:10;;;;;;;12.20;9.57;;;22.10;99.90;;;;;;5013780;28;20206;-58
2021/09/06 09:05:36;;;;;;;10.20;9.20;;;22.20;99.90;;;;;;5012686;28;20948;-57
2021/09/06 09:08:02;;;;;;;9.77;8.77;;;22.20;99.90;;;;;;4996301;28;20530;-58
2021/09/06 09:10:33;;;;;;;9.20;7.37;;;22.30;99.90;;;;;;5011230;28;20172;-56
2021/09/06 09:13:09;;;;;;;8.27;7.43;;;22.40;99.90;;;;;;5013962;28;20492;-59
2021/09/06 09:15:37;;;;;;;10.40;7.57;;;22.40;99.90;;;;;;5013368;28;20503;-59
2021/09/06 09:18:06;;;;;;;9.43;7.77;;;22.40;99.90;;;;;;5013571;28;20411;-59
2021/09/06 09:20:46;;;;;;;9.60;8.70;;;22.60;99.90;;;;;;5013938;28;20414;-59
2021/09/06 09:23:11;;;;;;;8.13;7.33;;;22.60;99.90;;;;;;5013537;28;20458;-59
2021/09/06 09:25:37;;;;;;;8.03;7.23;;;22.70;99.90;;;;;;5013961;28;20414;-59
2021/09/06 09:28:03;;;;;;;8.33;7.30;;;22.90;99.90;;;;;;5014156;28;20617;-59
2021/09/06 09:30:33;;;;;;;8.87;7.10;;;23.00;99.90;;;;;;5012189;28;20210;-58
2021/09/06 09:33:13;;;;;;;7.30;6.60;;;23.10;99.90;;;;;;5009509;28;20439;-57
2021/09/06 09:35:40;;;;;;;7.20;6.60;;;23.20;99.90;;;;;;4994207;28;20392;-59
2021/09/06 09:41:15;;;;;;;7.77;6.97;;;23.60;99.70;;;;;;4960167;28;20594;-57
2021/09/06 09:43:41;;;;;;;7.00;6.40;;;23.60;98.90;;;;;;4994003;28;20463;-57
2021/09/06 09:46:07;;;;;;;7.00;6.40;;;23.60;99.10;;;;;;4993638;28;20396;-58
2021/09/06 09:48:32;;;;;;;7.57;6.87;;;23.60;99.00;;;;;;4993954;28;20925;-58
2021/09/06 09:50:58;;;;;;;7.37;6.67;;;23.80;98.10;;;;;;4993611;28;20169;-55
2021/09/06 09:53:24;;;;;;;6.43;5.83;;;23.70;95.50;;;;;;4993748;28;20196;-58
2021/09/06 09:55:50;;;;;;;7.40;6.70;;;23.80;95.90;;;;;;4993611;28;20259;-59
2021/09/06 09:58:16;;;;;;;7.13;6.43;;;23.90;96.80;;;;;;4994148;28;20486;-58
2021/09/06 10:00:46;;;;;;;8.27;7.30;;;24.20;97.00;;;;;;4995610;28;20180;-56
2021/09/06 10:03:13;;;;;;;7.70;7.00;;;24.30;96.30;;;;;;5012945;28;20455;-58
2021/09/06 10:05:39;;;;;;;7.30;6.53;;;24.30;96.40;;;;;;5013376;28;20399;-56
2021/09/06 10:08:10;;;;;;;7.67;6.97;;;24.50;96.60;;;;;;5013143;28;20510;-56
2021/09/06 10:10:40;;;;;;;7.20;6.50;;;24.50;96.90;;;;;;5013263;28;20383;-58
2021/09/06 10:13:12;;;;;;;7.90;7.10;;;24.50;96.30;;;;;;5013174;28;20483;-58
2021/09/06 10:15:41;;;;;;;7.13;6.53;;;24.60;96.20;;;;;;4995554;28;20450;-56
2021/09/06 10:18:21;;;;;;;7.63;6.93;;;24.50;96.90;;;;;;5017284;28;20418;-57
2021/09/06 10:20:48;;;;;;;8.57;7.37;;;24.60;97.40;;;;;;5017025;28;20398;-57
2021/09/06 10:23:15;;;;;;;7.90;7.00;;;24.80;97.40;;;;;;5016659;28;20967;-58
2021/09/06 10:25:43;;;;;;;8.97;8.13;;;24.80;96.90;;;;;;4999033;28;20419;-58
2021/09/06 10:28:13;;;;;;;9.73;8.43;;;24.80;97.40;;;;;;5017070;28;20463;-58
2021/09/06 10:30:41;;;;;;;8.67;7.87;;;24.80;97.50;;;;;;5016773;28;20442;-54
2021/09/06 10:33:21;;;;;;;7.80;7.10;;;25.00;97.80;;;;;;5016882;28;20480;-57
2021/09/06 10:35:47;;;;;;;9.00;7.80;;;25.20;97.20;;;;;;5017107;28;20382;-57
2021/09/06 10:38:13;;;;;;;9.17;8.37;;;25.10;97.70;;;;;;5017305;28;20896;-58
2021/09/06 10:40:42;;;;;;;8.03;7.30;;;25.00;97.80;;;;;;5016572;28;20179;-57
2021/09/06 10:43:18;;;;;;;7.90;7.20;;;25.20;97.60;;;;;;5016750;28;20985;-57
2021/09/06 10:45:46;;;;;;;8.60;7.80;;;25.80;96.90;;;;;;5016785;28;20488;-59
2021/09/06 10:48:21;;;;;;;8.80;7.30;;;26.80;95.30;;;;;;5016357;28;20402;-58
2021/09/06 10:50:48;;;;;;;8.07;6.90;;;27.60;93.60;;;;;;5016328;28;20777;-58
2021/09/06 10:53:19;;;;;;;7.70;7.00;;;29.00;90.90;;;;;;5016507;28;20430;-57
2021/09/06 10:55:47;;;;;;;7.47;6.47;;;28.90;88.30;;;;;;5016146;28;20403;-59
2021/09/06 10:58:13;;;;;;;10.47;7.30;;;29.00;86.50;;;;;;5016515;28;20417;-59
2021/09/06 11:00:38;;;;;;;7.43;6.73;;;30.40;83.30;;;;;;5016388;28;20805;-58
2021/09/06 11:03:06;;;;;;;7.60;6.83;;;30.40;81.00;;;;;;5015966;28;20211;-59
2021/09/06 11:05:32;;;;;;;7.23;6.53;;;30.00;79.20;;;;;;5015962;28;20164;-57
2021/09/06 11:08:07;;;;;;;8.23;7.37;;;29.50;83.10;;;;;;5016352;28;20426;-59
2021/09/06 11:10:34;;;;;;;7.40;6.80;;;30.30;80.10;;;;;;5002522;28;20173;-59
2021/09/06 11:13:01;;;;;;;9.17;7.67;;;30.30;77.30;;;;;;4996391;28;20436;-58
2021/09/06 11:15:32;;;;;;;7.90;7.03;;;31.90;75.10;;;;;;4996339;28;20416;-57
2021/09/06 11:18:04;;;;;;;7.40;6.70;;;33.30;71.90;;;;;;4996071;28;20396;-57
2021/09/06 11:20:36;;;;;;;7.63;7.03;;;32.40;68.40;;;;;;4996539;28;20395;-57
2021/09/06 11:23:08;;;;;;;7.10;6.53;;;32.00;70.20;;;;;;4996422;28;20480;-57
2021/09/06 11:25:35;;;;;;;7.73;6.97;;;32.40;67.20;;;;;;4995783;28;20861;-56
2021/09/06 11:28:12;;;;;;;7.03;6.43;;;32.50;66.80;;;;;;4995523;28;20408;-57
2021/09/06 11:30:40;;;;;;;7.10;6.40;;;31.50;66.80;;;;;;4997753;28;20760;-57
2021/09/06 11:33:09;;;;;;;8.07;7.37;;;31.70;64.80;;;;;;5015349;28;20465;-58
2021/09/06 11:35:35;;;;;;;7.27;6.57;;;33.00;65.50;;;;;;5015779;28;20447;-57
2021/09/06 11:38:01;;;;;;;7.20;6.40;;;33.90;60.90;;;;;;5015683;28;20445;-57
2021/09/06 11:40:29;;;;;;;7.17;6.63;;;35.40;57.70;;;;;;5015190;28;20679;-57
2021/09/06 11:42:54;;;;;;;6.97;6.37;;;36.90;56.50;;;;;;5015314;28;20623;-56
2021/09/06 11:45:22;;;;;;;6.97;6.37;;;35.50;56.40;;;;;;5015573;28;20955;-57
2021/09/06 11:47:48;;;;;;;7.20;6.30;;;36.20;54.60;;;;;;5015144;28;20207;-57
2021/09/06 11:50:15;;;;;;;6.63;6.13;;;35.20;54.00;;;;;;5015620;28;20411;-57
2021/09/06 11:52:44;;;;;;;6.90;6.30;;;34.80;52.80;;;;;;5015049;28;20943;-57
2021/09/06 11:55:19;;;;;;;7.80;6.50;;;34.60;56.10;;;;;;5015028;28;20427;-57
2021/09/06 11:57:44;;;;;;;6.53;5.97;;;35.80;55.90;;;;;;5014458;28;21002;-57
2021/09/06 12:00:11;;;;;;;6.20;5.70;;;36.50;53.20;;;;;;5015094;28;20498;-56
2021/09/06 12:02:53;;;;;;;6.73;6.13;;;36.90;51.50;;;;;;5014730;28;20204;-56
2021/09/06 12:05:20;;;;;;;7.20;6.50;;;35.50;54.00;;;;;;5015371;28;20395;-57
2021/09/06 12:07:49;;;;;;;6.97;6.37;;;35.60;53.20;;;;;;5015167;28;20403;-56
2021/09/06 12:10:29;;;;;;;7.07;6.47;;;35.40;51.80;;;;;;5014888;28;20498;-57
2021/09/06 12:13:10;;;;;;;6.83;6.23;;;35.60;52.10;;;;;;5015021;28;20814;-56
2021/09/06 12:15:54;;;;;;;7.10;6.60;;;35.40;51.90;;;;;;5014773;28;20902;-55
2021/09/06 12:18:21;;;;;;;6.50;6.00;;;34.50;50.90;;;;;;5014729;28;20407;-57
2021/09/06 12:20:47;;;;;;;7.27;6.57;;;35.00;53.50;;;;;;5014764;28;20476;-56
2021/09/06 12:23:25;;;;;;;6.97;6.37;;;35.10;50.90;;;;;;5014401;28;21194;-57
2021/09/06 12:25:52;;;;;;;6.70;6.20;;;34.10;51.10;;;;;;5011209;28;20410;-57
2021/09/06 12:28:17;;;;;;;7.10;6.40;;;34.50;53.50;;;;;;5002564;28;20402;-57
2021/09/06 12:30:43;;;;;;;8.30;6.63;;;35.40;51.70;;;;;;5014586;28;20493;-57
2021/09/06 12:33:12;;;;;;;6.93;6.33;;;35.30;51.30;;;;;;5014202;28;20203;-57
2021/09/06 12:35:38;;;;;;;5.97;5.40;;;35.70;51.20;;;;;;5014236;28;20418;-56
2021/09/06 12:38:06;;;;;;;6.53;5.93;;;35.50;49.50;;;;;;5013854;28;20406;-56
2021/09/06 12:40:32;;;;;;;5.50;5.00;;;35.50;48.40;;;;;;4996895;28;20419;-58
2021/09/06 12:42:58;;;;;;;6.20;5.70;;;36.60;49.30;;;;;;5013885;28;20463;-58